Terminal Aerodrome Forecast
Issued by NWS Tallahassee, FL

Current Version | Previous Version | Text Only | Print | Product List | Glossary On
Versions: 1 2 3 4 5 6 7 8 9 10 11 12 13
000
FTUS42 KTAE 211900 AAA
TAFTLH
TAF AMD
KTLH 211902Z 2119/2218 07007KT 3SM BR VCSH OVC003
     FM220200 10004KT 6SM -RA BR OVC007
     FM220600 09005KT 2SM -RA BR OVC004=

USA.gov is the U.S. government's official web portal to all federal, state and local government web resources and services.